sensor_id;sensor_type;location;lat;lon;timestamp;P1;durP1;ratioP1;P2;durP2;ratioP2
5616;SDS011;2830;50.656;7.568;2023-03-01T00:00:54;19.17;;;9.88;;
5616;SDS011;2830;50.656;7.568;2023-03-01T00:03:21;18.17;;;9.95;;
5616;SDS011;2830;50.656;7.568;2023-03-01T00:05:48;18.70;;;9.52;;
5616;SDS011;2830;50.656;7.568;2023-03-01T00:08:15;17.83;;;9.48;;
5616;SDS011;2830;50.656;7.568;2023-03-01T00:10:43;17.45;;;10.02;;
5616;SDS011;2830;50.656;7.568;2023-03-01T00:13:10;19.55;;;10.20;;
5616;SDS011;2830;50.656;7.568;2023-03-01T00:15:40;17.65;;;8.70;;
5616;SDS011;2830;50.656;7.568;2023-03-01T00:18:07;17.60;;;10.48;;
5616;SDS011;2830;50.656;7.568;2023-03-01T00:20:35;22.80;;;9.80;;
5616;SDS011;2830;50.656;7.568;2023-03-01T00:23:02;19.50;;;10.55;;
5616;SDS011;2830;50.656;7.568;2023-03-01T00:25:29;20.33;;;10.60;;
5616;SDS011;2830;50.656;7.568;2023-03-01T00:30:46;16.35;;;8.55;;
5616;SDS011;2830;50.656;7.568;2023-03-01T00:33:13;17.65;;;9.70;;
5616;SDS011;2830;50.656;7.568;2023-03-01T00:35:40;17.85;;;8.00;;
5616;SDS011;2830;50.656;7.568;2023-03-01T00:38:07;16.77;;;8.63;;
5616;SDS011;2830;50.656;7.568;2023-03-01T00:40:35;17.13;;;8.60;;
5616;SDS011;2830;50.656;7.568;2023-03-01T00:43:03;16.58;;;8.02;;
5616;SDS011;2830;50.656;7.568;2023-03-01T00:45:30;17.80;;;9.48;;
5616;SDS011;2830;50.656;7.568;2023-03-01T00:47:57;17.65;;;9.88;;
5616;SDS011;2830;50.656;7.568;2023-03-01T00:50:24;18.02;;;9.40;;
5616;SDS011;2830;50.656;7.568;2023-03-01T00:52:52;29.73;;;9.18;;
5616;SDS011;2830;50.656;7.568;2023-03-01T00:55:19;18.58;;;9.25;;
5616;SDS011;2830;50.656;7.568;2023-03-01T00:57:46;15.82;;;8.15;;
5616;SDS011;2830;50.656;7.568;2023-03-01T01:00:14;16.33;;;8.57;;
5616;SDS011;2830;50.656;7.568;2023-03-01T01:02:41;16.92;;;9.10;;
5616;SDS011;2830;50.656;7.568;2023-03-01T01:05:08;16.02;;;8.40;;
5616;SDS011;2830;50.656;7.568;2023-03-01T01:07:35;15.27;;;7.97;;
5616;SDS011;2830;50.656;7.568;2023-03-01T01:10:03;20.85;;;9.50;;
5616;SDS011;2830;50.656;7.568;2023-03-01T01:12:30;17.25;;;9.40;;
5616;SDS011;2830;50.656;7.568;2023-03-01T01:14:57;17.23;;;8.48;;
5616;SDS011;2830;50.656;7.568;2023-03-01T01:17:24;17.52;;;8.80;;
5616;SDS011;2830;50.656;7.568;2023-03-01T01:19:51;16.35;;;8.70;;
5616;SDS011;2830;50.656;7.568;2023-03-01T01:22:18;20.80;;;10.07;;
5616;SDS011;2830;50.656;7.568;2023-03-01T01:24:45;16.63;;;8.98;;
5616;SDS011;2830;50.656;7.568;2023-03-01T01:27:12;14.23;;;7.72;;
5616;SDS011;2830;50.656;7.568;2023-03-01T01:29:39;16.13;;;8.65;;
5616;SDS011;2830;50.656;7.568;2023-03-01T01:32:08;17.50;;;8.70;;
5616;SDS011;2830;50.656;7.568;2023-03-01T01:34:35;15.43;;;8.55;;
5616;SDS011;2830;50.656;7.568;2023-03-01T01:37:02;15.00;;;8.02;;
5616;SDS011;2830;50.656;7.568;2023-03-01T01:39:29;15.00;;;8.75;;
5616;SDS011;2830;50.656;7.568;2023-03-01T01:41:56;16.00;;;9.18;;
5616;SDS011;2830;50.656;7.568;2023-03-01T01:44:24;19.23;;;7.90;;
5616;SDS011;2830;50.656;7.568;2023-03-01T01:46:57;14.65;;;8.18;;
5616;SDS011;2830;50.656;7.568;2023-03-01T01:49:27;15.63;;;8.70;;
5616;SDS011;2830;50.656;7.568;2023-03-01T01:51:57;14.63;;;8.15;;
5616;SDS011;2830;50.656;7.568;2023-03-01T01:54:31;16.45;;;8.82;;
5616;SDS011;2830;50.656;7.568;2023-03-01T01:57:01;14.02;;;8.00;;
5616;SDS011;2830;50.656;7.568;2023-03-01T01:59:36;18.27;;;8.43;;
5616;SDS011;2830;50.656;7.568;2023-03-01T02:09:14;16.60;;;8.07;;
5616;SDS011;2830;50.656;7.568;2023-03-01T02:11:43;17.00;;;8.38;;
5616;SDS011;2830;50.656;7.568;2023-03-01T02:14:10;14.32;;;7.93;;
5616;SDS011;2830;50.656;7.568;2023-03-01T02:16:37;15.27;;;7.50;;
5616;SDS011;2830;50.656;7.568;2023-03-01T02:19:04;16.13;;;8.32;;
5616;SDS011;2830;50.656;7.568;2023-03-01T02:21:41;15.32;;;8.63;;
5616;SDS011;2830;50.656;7.568;2023-03-01T02:24:17;16.17;;;8.10;;
5616;SDS011;2830;50.656;7.568;2023-03-01T02:26:51;15.07;;;7.53;;
5616;SDS011;2830;50.656;7.568;2023-03-01T02:29:19;16.08;;;7.75;;
5616;SDS011;2830;50.656;7.568;2023-03-01T02:31:47;14.52;;;7.22;;
5616;SDS011;2830;50.656;7.568;2023-03-01T02:34:15;16.73;;;9.10;;
5616;SDS011;2830;50.656;7.568;2023-03-01T02:36:45;15.55;;;7.35;;
5616;SDS011;2830;50.656;7.568;2023-03-01T02:39:13;15.27;;;8.40;;
5616;SDS011;2830;50.656;7.568;2023-03-01T02:41:43;15.43;;;7.85;;
5616;SDS011;2830;50.656;7.568;2023-03-01T02:44:11;14.35;;;7.25;;
5616;SDS011;2830;50.656;7.568;2023-03-01T02:46:42;16.88;;;8.63;;
5616;SDS011;2830;50.656;7.568;2023-03-01T02:49:20;16.48;;;8.38;;
5616;SDS011;2830;50.656;7.568;2023-03-01T02:51:52;16.15;;;8.48;;
5616;SDS011;2830;50.656;7.568;2023-03-01T02:54:36;15.88;;;8.43;;
5616;SDS011;2830;50.656;7.568;2023-03-01T02:57:12;13.82;;;7.30;;
5616;SDS011;2830;50.656;7.568;2023-03-01T02:59:39;13.68;;;7.78;;
5616;SDS011;2830;50.656;7.568;2023-03-01T03:02:18;15.30;;;8.00;;
5616;SDS011;2830;50.656;7.568;2023-03-01T03:05:06;16.98;;;8.73;;
5616;SDS011;2830;50.656;7.568;2023-03-01T03:07:35;16.50;;;9.10;;
5616;SDS011;2830;50.656;7.568;2023-03-01T03:10:04;16.90;;;7.85;;
5616;SDS011;2830;50.656;7.568;2023-03-01T03:12:31;14.60;;;7.78;;
5616;SDS011;2830;50.656;7.568;2023-03-01T03:14:58;17.35;;;8.98;;
5616;SDS011;2830;50.656;7.568;2023-03-01T03:17:25;17.73;;;7.75;;
5616;SDS011;2830;50.656;7.568;2023-03-01T03:19:52;16.15;;;7.90;;
5616;SDS011;2830;50.656;7.568;2023-03-01T03:22:20;17.30;;;8.35;;
5616;SDS011;2830;50.656;7.568;2023-03-01T03:24:47;17.25;;;8.10;;
5616;SDS011;2830;50.656;7.568;2023-03-01T03:27:15;17.00;;;8.27;;
5616;SDS011;2830;50.656;7.568;2023-03-01T03:29:42;16.27;;;7.53;;
5616;SDS011;2830;50.656;7.568;2023-03-01T03:32:11;15.75;;;8.38;;
5616;SDS011;2830;50.656;7.568;2023-03-01T03:34:38;17.40;;;8.82;;
5616;SDS011;2830;50.656;7.568;2023-03-01T03:37:05;14.35;;;7.18;;
5616;SDS011;2830;50.656;7.568;2023-03-01T03:39:52;12.40;;;6.75;;
5616;SDS011;2830;50.656;7.568;2023-03-01T03:42:21;15.10;;;7.15;;
5616;SDS011;2830;50.656;7.568;2023-03-01T03:44:48;13.68;;;7.10;;
5616;SDS011;2830;50.656;7.568;2023-03-01T03:47:15;16.48;;;8.90;;
5616;SDS011;2830;50.656;7.568;2023-03-01T03:49:42;16.50;;;8.25;;
5616;SDS011;2830;50.656;7.568;2023-03-01T03:52:09;15.50;;;8.60;;
5616;SDS011;2830;50.656;7.568;2023-03-01T03:54:40;16.75;;;8.85;;
5616;SDS011;2830;50.656;7.568;2023-03-01T03:57:07;15.85;;;7.88;;
5616;SDS011;2830;50.656;7.568;2023-03-01T03:59:34;16.10;;;7.70;;
5616;SDS011;2830;50.656;7.568;2023-03-01T04:02:01;17.15;;;8.35;;
5616;SDS011;2830;50.656;7.568;2023-03-01T04:04:28;14.98;;;8.05;;
5616;SDS011;2830;50.656;7.568;2023-03-01T04:06:55;14.85;;;8.05;;
5616;SDS011;2830;50.656;7.568;2023-03-01T04:09:22;14.70;;;7.50;;
5616;SDS011;2830;50.656;7.568;2023-03-01T04:11:49;13.30;;;7.53;;
5616;SDS011;2830;50.656;7.568;2023-03-01T04:14:16;13.73;;;7.63;;
5616;SDS011;2830;50.656;7.568;2023-03-01T04:16:44;14.43;;;7.30;;
5616;SDS011;2830;50.656;7.568;2023-03-01T04:19:11;15.70;;;8.23;;
5616;SDS011;2830;50.656;7.568;2023-03-01T04:21:38;19.83;;;7.75;;
5616;SDS011;2830;50.656;7.568;2023-03-01T04:24:05;15.13;;;7.60;;
5616;SDS011;2830;50.656;7.568;2023-03-01T04:26:32;16.55;;;8.50;;
5616;SDS011;2830;50.656;7.568;2023-03-01T04:28:59;15.35;;;7.65;;
5616;SDS011;2830;50.656;7.568;2023-03-01T04:31:26;15.70;;;8.05;;
5616;SDS011;2830;50.656;7.568;2023-03-01T04:33:55;14.77;;;7.50;;
5616;SDS011;2830;50.656;7.568;2023-03-01T04:36:23;15.65;;;7.88;;
5616;SDS011;2830;50.656;7.568;2023-03-01T04:38:51;17.33;;;8.95;;
5616;SDS011;2830;50.656;7.568;2023-03-01T04:41:19;15.75;;;8.07;;
5616;SDS011;2830;50.656;7.568;2023-03-01T04:43:46;17.95;;;7.82;;
5616;SDS011;2830;50.656;7.568;2023-03-01T04:46:16;13.30;;;7.20;;
5616;SDS011;2830;50.656;7.568;2023-03-01T04:48:44;15.05;;;7.95;;
5616;SDS011;2830;50.656;7.568;2023-03-01T04:51:12;13.55;;;7.20;;
5616;SDS011;2830;50.656;7.568;2023-03-01T04:53:40;14.55;;;6.80;;
5616;SDS011;2830;50.656;7.568;2023-03-01T04:56:07;14.50;;;7.63;;
5616;SDS011;2830;50.656;7.568;2023-03-01T04:58:35;15.00;;;7.57;;
5616;SDS011;2830;50.656;7.568;2023-03-01T05:01:07;13.88;;;7.40;;
5616;SDS011;2830;50.656;7.568;2023-03-01T05:03:44;17.58;;;7.32;;
5616;SDS011;2830;50.656;7.568;2023-03-01T05:06:11;14.38;;;7.00;;
5616;SDS011;2830;50.656;7.568;2023-03-01T05:08:39;15.32;;;8.00;;
5616;SDS011;2830;50.656;7.568;2023-03-01T05:11:06;14.48;;;7.60;;
5616;SDS011;2830;50.656;7.568;2023-03-01T05:13:37;15.55;;;7.97;;
5616;SDS011;2830;50.656;7.568;2023-03-01T05:16:05;21.13;;;10.68;;
5616;SDS011;2830;50.656;7.568;2023-03-01T05:18:33;14.38;;;7.20;;
5616;SDS011;2830;50.656;7.568;2023-03-01T05:21:02;16.50;;;8.70;;
5616;SDS011;2830;50.656;7.568;2023-03-01T05:23:30;13.77;;;6.60;;
5616;SDS011;2830;50.656;7.568;2023-03-01T05:25:58;17.40;;;8.77;;
5616;SDS011;2830;50.656;7.568;2023-03-01T05:28:26;19.70;;;9.93;;
5616;SDS011;2830;50.656;7.568;2023-03-01T05:30:54;19.65;;;11.13;;
5616;SDS011;2830;50.656;7.568;2023-03-01T05:33:21;19.73;;;11.15;;
5616;SDS011;2830;50.656;7.568;2023-03-01T05:35:49;20.27;;;10.10;;
5616;SDS011;2830;50.656;7.568;2023-03-01T05:38:18;23.75;;;12.32;;
5616;SDS011;2830;50.656;7.568;2023-03-01T05:40:46;26.08;;;13.90;;
5616;SDS011;2830;50.656;7.568;2023-03-01T05:43:14;29.60;;;15.85;;
5616;SDS011;2830;50.656;7.568;2023-03-01T05:45:41;33.67;;;18.50;;
5616;SDS011;2830;50.656;7.568;2023-03-01T05:48:09;24.05;;;13.55;;
5616;SDS011;2830;50.656;7.568;2023-03-01T05:50:38;28.98;;;14.50;;
5616;SDS011;2830;50.656;7.568;2023-03-01T05:53:10;21.45;;;12.40;;
5616;SDS011;2830;50.656;7.568;2023-03-01T05:55:37;22.55;;;12.25;;
5616;SDS011;2830;50.656;7.568;2023-03-01T05:58:05;24.17;;;13.00;;
5616;SDS011;2830;50.656;7.568;2023-03-01T06:00:33;25.08;;;12.90;;
5616;SDS011;2830;50.656;7.568;2023-03-01T06:03:00;27.60;;;15.35;;
5616;SDS011;2830;50.656;7.568;2023-03-01T06:05:27;24.65;;;13.43;;
5616;SDS011;2830;50.656;7.568;2023-03-01T06:07:55;19.63;;;11.75;;
5616;SDS011;2830;50.656;7.568;2023-03-01T06:10:22;24.55;;;12.77;;
5616;SDS011;2830;50.656;7.568;2023-03-01T06:12:49;38.72;;;15.65;;
5616;SDS011;2830;50.656;7.568;2023-03-01T06:15:16;21.27;;;11.52;;
5616;SDS011;2830;50.656;7.568;2023-03-01T06:17:44;35.42;;;21.98;;
5616;SDS011;2830;50.656;7.568;2023-03-01T06:22:39;22.90;;;12.40;;
5616;SDS011;2830;50.656;7.568;2023-03-01T06:25:07;23.38;;;12.05;;
5616;SDS011;2830;50.656;7.568;2023-03-01T06:27:34;22.83;;;14.35;;
5616;SDS011;2830;50.656;7.568;2023-03-01T06:30:02;22.80;;;12.63;;
5616;SDS011;2830;50.656;7.568;2023-03-01T06:32:29;26.27;;;13.23;;
5616;SDS011;2830;50.656;7.568;2023-03-01T06:34:57;22.92;;;11.68;;
5616;SDS011;2830;50.656;7.568;2023-03-01T06:37:27;22.88;;;12.20;;
5616;SDS011;2830;50.656;7.568;2023-03-01T06:39:54;19.42;;;10.68;;
5616;SDS011;2830;50.656;7.568;2023-03-01T06:42:21;24.00;;;12.40;;
5616;SDS011;2830;50.656;7.568;2023-03-01T06:44:48;27.23;;;15.32;;
5616;SDS011;2830;50.656;7.568;2023-03-01T06:47:15;17.92;;;9.43;;
5616;SDS011;2830;50.656;7.568;2023-03-01T06:49:42;22.42;;;11.15;;
5616;SDS011;2830;50.656;7.568;2023-03-01T06:52:09;23.63;;;12.15;;
5616;SDS011;2830;50.656;7.568;2023-03-01T06:54:36;32.08;;;13.27;;
5616;SDS011;2830;50.656;7.568;2023-03-01T06:57:03;26.17;;;14.35;;
5616;SDS011;2830;50.656;7.568;2023-03-01T06:59:30;23.42;;;12.50;;
5616;SDS011;2830;50.656;7.568;2023-03-01T07:01:57;23.33;;;13.23;;
5616;SDS011;2830;50.656;7.568;2023-03-01T07:04:24;16.70;;;10.10;;
5616;SDS011;2830;50.656;7.568;2023-03-01T07:06:54;21.73;;;12.10;;
5616;SDS011;2830;50.656;7.568;2023-03-01T07:09:22;24.15;;;12.25;;
5616;SDS011;2830;50.656;7.568;2023-03-01T07:11:49;29.65;;;14.98;;
5616;SDS011;2830;50.656;7.568;2023-03-01T07:14:17;30.73;;;15.73;;
5616;SDS011;2830;50.656;7.568;2023-03-01T07:16:45;20.73;;;10.65;;
5616;SDS011;2830;50.656;7.568;2023-03-01T07:19:13;17.50;;;9.57;;
5616;SDS011;2830;50.656;7.568;2023-03-01T07:21:40;23.02;;;10.45;;
5616;SDS011;2830;50.656;7.568;2023-03-01T07:24:07;19.50;;;9.77;;
5616;SDS011;2830;50.656;7.568;2023-03-01T07:26:34;18.27;;;11.05;;
5616;SDS011;2830;50.656;7.568;2023-03-01T07:29:05;24.92;;;12.52;;
5616;SDS011;2830;50.656;7.568;2023-03-01T07:31:33;18.50;;;10.13;;
5616;SDS011;2830;50.656;7.568;2023-03-01T07:34:00;17.88;;;10.07;;
5616;SDS011;2830;50.656;7.568;2023-03-01T07:36:27;19.25;;;10.27;;
5616;SDS011;2830;50.656;7.568;2023-03-01T07:38:54;18.80;;;10.00;;
5616;SDS011;2830;50.656;7.568;2023-03-01T07:41:21;18.70;;;10.32;;
5616;SDS011;2830;50.656;7.568;2023-03-01T07:43:49;20.60;;;10.45;;
5616;SDS011;2830;50.656;7.568;2023-03-01T07:46:16;19.25;;;9.55;;
5616;SDS011;2830;50.656;7.568;2023-03-01T07:48:45;18.40;;;8.45;;
5616;SDS011;2830;50.656;7.568;2023-03-01T07:51:12;20.80;;;9.93;;
5616;SDS011;2830;50.656;7.568;2023-03-01T07:53:39;21.40;;;10.35;;
5616;SDS011;2830;50.656;7.568;2023-03-01T07:58:34;23.27;;;11.75;;
5616;SDS011;2830;50.656;7.568;2023-03-01T08:01:02;23.13;;;11.73;;
5616;SDS011;2830;50.656;7.568;2023-03-01T08:03:29;22.63;;;10.23;;
5616;SDS011;2830;50.656;7.568;2023-03-01T08:06:00;20.58;;;10.60;;
5616;SDS011;2830;50.656;7.568;2023-03-01T08:08:27;21.52;;;10.63;;
5616;SDS011;2830;50.656;7.568;2023-03-01T08:10:58;28.25;;;10.70;;
5616;SDS011;2830;50.656;7.568;2023-03-01T08:13:25;28.03;;;13.20;;
5616;SDS011;2830;50.656;7.568;2023-03-01T08:15:53;24.53;;;12.00;;
5616;SDS011;2830;50.656;7.568;2023-03-01T08:18:21;22.30;;;9.83;;
5616;SDS011;2830;50.656;7.568;2023-03-01T08:20:49;23.77;;;10.87;;
5616;SDS011;2830;50.656;7.568;2023-03-01T08:23:16;21.17;;;10.40;;
5616;SDS011;2830;50.656;7.568;2023-03-01T08:25:43;22.13;;;10.67;;
5616;SDS011;2830;50.656;7.568;2023-03-01T08:28:10;22.00;;;9.60;;
5616;SDS011;2830;50.656;7.568;2023-03-01T08:30:37;22.90;;;11.10;;
5616;SDS011;2830;50.656;7.568;2023-03-01T08:33:04;24.50;;;12.87;;
5616;SDS011;2830;50.656;7.568;2023-03-01T08:35:31;28.30;;;14.73;;
5616;SDS011;2830;50.656;7.568;2023-03-01T08:37:58;22.73;;;12.63;;
5616;SDS011;2830;50.656;7.568;2023-03-01T08:40:25;26.37;;;13.77;;
5616;SDS011;2830;50.656;7.568;2023-03-01T08:42:52;24.13;;;12.57;;
5616;SDS011;2830;50.656;7.568;2023-03-01T08:45:19;27.90;;;16.70;;
5616;SDS011;2830;50.656;7.568;2023-03-01T08:47:46;25.07;;;11.83;;
5616;SDS011;2830;50.656;7.568;2023-03-01T08:50:13;24.80;;;12.93;;
5616;SDS011;2830;50.656;7.568;2023-03-01T08:52:40;29.07;;;14.70;;
5616;SDS011;2830;50.656;7.568;2023-03-01T08:55:08;22.80;;;11.90;;
5616;SDS011;2830;50.656;7.568;2023-03-01T08:57:35;30.03;;;16.03;;
5616;SDS011;2830;50.656;7.568;2023-03-01T09:00:02;23.57;;;11.30;;
5616;SDS011;2830;50.656;7.568;2023-03-01T09:02:33;25.33;;;13.27;;
5616;SDS011;2830;50.656;7.568;2023-03-01T09:05:01;31.93;;;11.50;;
5616;SDS011;2830;50.656;7.568;2023-03-01T09:07:28;28.93;;;11.60;;
5616;SDS011;2830;50.656;7.568;2023-03-01T09:09:55;24.97;;;11.87;;
5616;SDS011;2830;50.656;7.568;2023-03-01T09:12:22;27.80;;;13.87;;
5616;SDS011;2830;50.656;7.568;2023-03-01T09:14:50;27.97;;;13.87;;
5616;SDS011;2830;50.656;7.568;2023-03-01T09:17:18;27.20;;;13.30;;
5616;SDS011;2830;50.656;7.568;2023-03-01T09:19:47;29.00;;;11.30;;
5616;SDS011;2830;50.656;7.568;2023-03-01T09:22:15;23.97;;;11.40;;
5616;SDS011;2830;50.656;7.568;2023-03-01T09:24:42;20.53;;;9.90;;
5616;SDS011;2830;50.656;7.568;2023-03-01T09:27:09;24.23;;;10.93;;
5616;SDS011;2830;50.656;7.568;2023-03-01T09:29:37;23.50;;;10.27;;
5616;SDS011;2830;50.656;7.568;2023-03-01T09:32:04;30.63;;;10.50;;
5616;SDS011;2830;50.656;7.568;2023-03-01T09:34:31;26.73;;;9.50;;
5616;SDS011;2830;50.656;7.568;2023-03-01T09:37:18;28.13;;;9.93;;
5616;SDS011;2830;50.656;7.568;2023-03-01T09:39:45;22.43;;;9.23;;
5616;SDS011;2830;50.656;7.568;2023-03-01T09:42:12;23.97;;;10.40;;
5616;SDS011;2830;50.656;7.568;2023-03-01T09:44:42;29.37;;;9.80;;
5616;SDS011;2830;50.656;7.568;2023-03-01T09:47:17;25.40;;;10.73;;
5616;SDS011;2830;50.656;7.568;2023-03-01T09:49:45;26.40;;;10.07;;
5616;SDS011;2830;50.656;7.568;2023-03-01T09:52:23;24.77;;;9.17;;
5616;SDS011;2830;50.656;7.568;2023-03-01T09:54:53;25.10;;;9.73;;
5616;SDS011;2830;50.656;7.568;2023-03-01T10:02:41;23.03;;;9.13;;
5616;SDS011;2830;50.656;7.568;2023-03-01T10:05:46;24.60;;;9.33;;
5616;SDS011;2830;50.656;7.568;2023-03-01T10:10:38;23.97;;;8.43;;
5616;SDS011;2830;50.656;7.568;2023-03-01T10:15:44;23.10;;;8.23;;
5616;SDS011;2830;50.656;7.568;2023-03-01T10:18:12;21.97;;;8.87;;
5616;SDS011;2830;50.656;7.568;2023-03-01T10:20:45;21.57;;;8.90;;
5616;SDS011;2830;50.656;7.568;2023-03-01T10:23:13;20.60;;;8.37;;
5616;SDS011;2830;50.656;7.568;2023-03-01T10:29:06;20.87;;;7.60;;
5616;SDS011;2830;50.656;7.568;2023-03-01T10:31:14;23.43;;;8.33;;
5616;SDS011;2830;50.656;7.568;2023-03-01T10:33:43;23.43;;;8.57;;
5616;SDS011;2830;50.656;7.568;2023-03-01T10:36:11;21.57;;;7.60;;
5616;SDS011;2830;50.656;7.568;2023-03-01T10:38:49;19.10;;;7.07;;
5616;SDS011;2830;50.656;7.568;2023-03-01T10:41:18;21.87;;;7.43;;
5616;SDS011;2830;50.656;7.568;2023-03-01T10:43:46;22.87;;;8.63;;
5616;SDS011;2830;50.656;7.568;2023-03-01T10:46:24;23.27;;;8.50;;
5616;SDS011;2830;50.656;7.568;2023-03-01T10:49:25;21.80;;;7.87;;
5616;SDS011;2830;50.656;7.568;2023-03-01T10:51:46;20.97;;;7.57;;
5616;SDS011;2830;50.656;7.568;2023-03-01T10:54:27;21.63;;;7.87;;
5616;SDS011;2830;50.656;7.568;2023-03-01T10:56:56;24.20;;;8.00;;
5616;SDS011;2830;50.656;7.568;2023-03-01T11:02:36;23.10;;;7.90;;
5616;SDS011;2830;50.656;7.568;2023-03-01T11:05:00;24.93;;;7.70;;
5616;SDS011;2830;50.656;7.568;2023-03-01T11:07:28;27.07;;;10.67;;
5616;SDS011;2830;50.656;7.568;2023-03-01T11:09:55;21.97;;;8.30;;
5616;SDS011;2830;50.656;7.568;2023-03-01T11:12:22;25.67;;;8.07;;
5616;SDS011;2830;50.656;7.568;2023-03-01T11:14:52;22.17;;;8.10;;
5616;SDS011;2830;50.656;7.568;2023-03-01T11:17:24;22.07;;;6.87;;
5616;SDS011;2830;50.656;7.568;2023-03-01T11:22:55;22.90;;;8.13;;
5616;SDS011;2830;50.656;7.568;2023-03-01T11:25:24;25.70;;;11.20;;
5616;SDS011;2830;50.656;7.568;2023-03-01T11:27:52;23.10;;;7.70;;
5616;SDS011;2830;50.656;7.568;2023-03-01T11:30:31;26.40;;;6.80;;
5616;SDS011;2830;50.656;7.568;2023-03-01T11:33:08;20.53;;;6.80;;
5616;SDS011;2830;50.656;7.568;2023-03-01T11:35:41;22.50;;;7.80;;
5616;SDS011;2830;50.656;7.568;2023-03-01T11:43:18;23.80;;;7.77;;
5616;SDS011;2830;50.656;7.568;2023-03-01T11:45:54;21.60;;;7.00;;
5616;SDS011;2830;50.656;7.568;2023-03-01T11:51:22;22.37;;;6.90;;
5616;SDS011;2830;50.656;7.568;2023-03-01T11:56:27;21.80;;;7.63;;
5616;SDS011;2830;50.656;7.568;2023-03-01T11:59:00;26.57;;;7.17;;
5616;SDS011;2830;50.656;7.568;2023-03-01T12:01:45;18.20;;;5.43;;
5616;SDS011;2830;50.656;7.568;2023-03-01T12:04:22;21.20;;;6.73;;
5616;SDS011;2830;50.656;7.568;2023-03-01T12:07:00;20.33;;;6.20;;
5616;SDS011;2830;50.656;7.568;2023-03-01T12:12:27;18.27;;;5.50;;
5616;SDS011;2830;50.656;7.568;2023-03-01T12:17:57;18.63;;;5.63;;
5616;SDS011;2830;50.656;7.568;2023-03-01T12:39:13;19.40;;;5.70;;
5616;SDS011;2830;50.656;7.568;2023-03-01T12:42:05;21.60;;;6.00;;
5616;SDS011;2830;50.656;7.568;2023-03-01T12:49:45;19.57;;;5.03;;
5616;SDS011;2830;50.656;7.568;2023-03-01T12:52:14;20.20;;;5.70;;
5616;SDS011;2830;50.656;7.568;2023-03-01T12:54:43;20.03;;;6.00;;
5616;SDS011;2830;50.656;7.568;2023-03-01T12:57:14;21.07;;;5.57;;
5616;SDS011;2830;50.656;7.568;2023-03-01T13:00:06;20.30;;;5.10;;
5616;SDS011;2830;50.656;7.568;2023-03-01T13:02:39;19.83;;;5.73;;
5616;SDS011;2830;50.656;7.568;2023-03-01T13:07:57;17.50;;;4.50;;
5616;SDS011;2830;50.656;7.568;2023-03-01T13:13:22;22.43;;;5.80;;
5616;SDS011;2830;50.656;7.568;2023-03-01T13:15:49;19.00;;;5.10;;
5616;SDS011;2830;50.656;7.568;2023-03-01T13:20:55;19.13;;;4.97;;
5616;SDS011;2830;50.656;7.568;2023-03-01T13:23:24;20.00;;;5.53;;
5616;SDS011;2830;50.656;7.568;2023-03-01T13:26:01;22.50;;;4.80;;
5616;SDS011;2830;50.656;7.568;2023-03-01T13:30:59;19.87;;;4.70;;
5616;SDS011;2830;50.656;7.568;2023-03-01T13:35:54;18.30;;;4.30;;
5616;SDS011;2830;50.656;7.568;2023-03-01T13:41:07;21.20;;;5.53;;
5616;SDS011;2830;50.656;7.568;2023-03-01T13:43:35;18.40;;;4.67;;
5616;SDS011;2830;50.656;7.568;2023-03-01T13:46:07;17.13;;;4.67;;
5616;SDS011;2830;50.656;7.568;2023-03-01T13:48:37;18.50;;;4.67;;
5616;SDS011;2830;50.656;7.568;2023-03-01T13:51:06;17.80;;;4.70;;
5616;SDS011;2830;50.656;7.568;2023-03-01T13:53:35;18.30;;;5.20;;
5616;SDS011;2830;50.656;7.568;2023-03-01T13:56:07;18.80;;;5.00;;
5616;SDS011;2830;50.656;7.568;2023-03-01T13:58:51;17.90;;;4.70;;
5616;SDS011;2830;50.656;7.568;2023-03-01T14:01:27;16.07;;;4.40;;
5616;SDS011;2830;50.656;7.568;2023-03-01T14:03:58;19.20;;;4.20;;
5616;SDS011;2830;50.656;7.568;2023-03-01T14:06:26;17.13;;;5.17;;
5616;SDS011;2830;50.656;7.568;2023-03-01T14:09:05;16.70;;;4.53;;
5616;SDS011;2830;50.656;7.568;2023-03-01T14:16:52;17.67;;;4.60;;
5616;SDS011;2830;50.656;7.568;2023-03-01T14:19:22;18.43;;;4.80;;
5616;SDS011;2830;50.656;7.568;2023-03-01T14:24:30;15.77;;;3.80;;
5616;SDS011;2830;50.656;7.568;2023-03-01T14:27:00;15.13;;;4.30;;
5616;SDS011;2830;50.656;7.568;2023-03-01T14:29:34;15.43;;;4.20;;
5616;SDS011;2830;50.656;7.568;2023-03-01T14:32:08;17.30;;;4.40;;
5616;SDS011;2830;50.656;7.568;2023-03-01T14:34:35;22.00;;;4.43;;
5616;SDS011;2830;50.656;7.568;2023-03-01T14:37:19;15.03;;;3.90;;
5616;SDS011;2830;50.656;7.568;2023-03-01T14:39:46;16.77;;;4.27;;
5616;SDS011;2830;50.656;7.568;2023-03-01T14:42:14;16.47;;;4.03;;
5616;SDS011;2830;50.656;7.568;2023-03-01T14:44:42;13.60;;;3.40;;
5616;SDS011;2830;50.656;7.568;2023-03-01T14:47:11;14.30;;;4.00;;
5616;SDS011;2830;50.656;7.568;2023-03-01T14:49:39;15.97;;;3.80;;
5616;SDS011;2830;50.656;7.568;2023-03-01T14:52:14;16.60;;;4.13;;
5616;SDS011;2830;50.656;7.568;2023-03-01T14:54:48;14.57;;;3.70;;
5616;SDS011;2830;50.656;7.568;2023-03-01T14:57:16;15.23;;;4.00;;
5616;SDS011;2830;50.656;7.568;2023-03-01T14:59:43;14.20;;;4.23;;
5616;SDS011;2830;50.656;7.568;2023-03-01T15:02:15;15.20;;;4.03;;
5616;SDS011;2830;50.656;7.568;2023-03-01T15:04:46;14.63;;;4.10;;
5616;SDS011;2830;50.656;7.568;2023-03-01T15:07:14;15.10;;;3.63;;
5616;SDS011;2830;50.656;7.568;2023-03-01T15:09:42;17.93;;;3.93;;
5616;SDS011;2830;50.656;7.568;2023-03-01T15:14:55;15.93;;;4.40;;
5616;SDS011;2830;50.656;7.568;2023-03-01T15:17:33;13.77;;;3.43;;
5616;SDS011;2830;50.656;7.568;2023-03-01T15:20:02;14.53;;;4.10;;
5616;SDS011;2830;50.656;7.568;2023-03-01T15:22:30;15.80;;;4.20;;
5616;SDS011;2830;50.656;7.568;2023-03-01T15:24:57;16.37;;;4.10;;
5616;SDS011;2830;50.656;7.568;2023-03-01T15:27:25;13.33;;;3.43;;
5616;SDS011;2830;50.656;7.568;2023-03-01T15:30:00;16.03;;;4.40;;
5616;SDS011;2830;50.656;7.568;2023-03-01T15:32:29;21.20;;;4.13;;
5616;SDS011;2830;50.656;7.568;2023-03-01T15:34:58;18.80;;;3.90;;
5616;SDS011;2830;50.656;7.568;2023-03-01T15:40:18;21.43;;;4.30;;
5616;SDS011;2830;50.656;7.568;2023-03-01T15:42:46;20.13;;;4.50;;
5616;SDS011;2830;50.656;7.568;2023-03-01T15:47:47;13.87;;;3.70;;
5616;SDS011;2830;50.656;7.568;2023-03-01T15:50:26;15.80;;;4.47;;
5616;SDS011;2830;50.656;7.568;2023-03-01T15:52:53;13.30;;;3.53;;
5616;SDS011;2830;50.656;7.568;2023-03-01T15:55:22;14.00;;;3.80;;
5616;SDS011;2830;50.656;7.568;2023-03-01T15:57:50;16.10;;;4.47;;
5616;SDS011;2830;50.656;7.568;2023-03-01T16:00:26;14.47;;;4.37;;
5616;SDS011;2830;50.656;7.568;2023-03-01T16:02:53;14.13;;;3.70;;
5616;SDS011;2830;50.656;7.568;2023-03-01T16:05:30;15.00;;;4.17;;
5616;SDS011;2830;50.656;7.568;2023-03-01T16:07:57;13.17;;;3.70;;
5616;SDS011;2830;50.656;7.568;2023-03-01T16:10:24;14.50;;;3.70;;
5616;SDS011;2830;50.656;7.568;2023-03-01T16:12:52;14.50;;;3.73;;
5616;SDS011;2830;50.656;7.568;2023-03-01T16:15:20;20.87;;;6.60;;
5616;SDS011;2830;50.656;7.568;2023-03-01T16:17:48;17.97;;;4.27;;
5616;SDS011;2830;50.656;7.568;2023-03-01T16:20:15;15.60;;;4.50;;
5616;SDS011;2830;50.656;7.568;2023-03-01T16:22:54;16.43;;;4.53;;
5616;SDS011;2830;50.656;7.568;2023-03-01T16:25:21;17.30;;;4.43;;
5616;SDS011;2830;50.656;7.568;2023-03-01T16:27:49;15.33;;;4.87;;
5616;SDS011;2830;50.656;7.568;2023-03-01T16:30:18;15.47;;;5.00;;
5616;SDS011;2830;50.656;7.568;2023-03-01T16:32:46;15.50;;;4.27;;
5616;SDS011;2830;50.656;7.568;2023-03-01T16:35:15;14.30;;;4.60;;
5616;SDS011;2830;50.656;7.568;2023-03-01T16:37:42;21.93;;;5.80;;
5616;SDS011;2830;50.656;7.568;2023-03-01T16:40:20;14.73;;;5.05;;
5616;SDS011;2830;50.656;7.568;2023-03-01T16:42:47;15.70;;;5.60;;
5616;SDS011;2830;50.656;7.568;2023-03-01T16:45:14;16.95;;;6.22;;
5616;SDS011;2830;50.656;7.568;2023-03-01T16:47:50;14.73;;;5.18;;
5616;SDS011;2830;50.656;7.568;2023-03-01T16:50:21;15.07;;;5.50;;
5616;SDS011;2830;50.656;7.568;2023-03-01T16:52:48;13.23;;;4.80;;
5616;SDS011;2830;50.656;7.568;2023-03-01T16:55:15;15.38;;;5.38;;
5616;SDS011;2830;50.656;7.568;2023-03-01T16:57:42;16.23;;;4.90;;